Time;durP1;ratioP1;P1;durP2;ratioP2;P2;SDS_P1;SDS_P2;PMS_P1;PMS_P2;Temp;Humidity;BMP_temperature;BMP_pressure;BME280_temperature;BME280_humidity;BME280_pressure;Samples;Min_cycle;Max_cycle;Signal;HPM_P1;HPM_P2
2020/12/07 00:02:22;;;;;;;23.05;15.75;;;;;;;10.26;75.80;93582.34;5002174;28;20419;-77
2020/12/07 00:04:48;;;;;;;25.00;16.50;;;;;;;10.21;75.98;93579.03;5004074;28;20095;-78
2020/12/07 00:07:14;;;;;;;27.77;16.90;;;;;;;10.20;75.96;93577.44;5006257;28;20034;-79
2020/12/07 00:09:40;;;;;;;26.63;17.23;;;;;;;10.23;75.88;93566.28;4990937;28;20049;-77
2020/12/07 00:12:05;;;;;;;31.65;19.15;;;;;;;10.30;75.85;93569.34;5005876;28;20034;-76
2020/12/07 00:14:31;;;;;;;28.58;17.05;;;;;;;10.23;76.22;93571.56;4970829;28;20104;-78
2020/12/07 00:16:56;;;;;;;29.30;17.10;;;;;;;10.24;76.20;93573.94;4976938;28;20084;-77
2020/12/07 00:19:22;;;;;;;29.02;17.70;;;;;;;10.24;76.24;93559.94;5006225;28;20051;-78
2020/12/07 00:21:47;;;;;;;26.70;16.98;;;;;;;10.09;76.00;93544.34;4985963;28;20054;-77
2020/12/07 00:24:13;;;;;;;23.52;16.25;;;;;;;10.22;75.89;93559.44;4998244;28;20549;-77
2020/12/07 00:26:42;;;;;;;24.73;15.32;;;;;;;10.23;76.09;93563.66;4993635;28;20046;-77
2020/12/07 00:29:08;;;;;;;24.40;15.68;;;;;;;10.21;75.89;93563.19;4999558;28;20721;-76
2020/12/07 00:31:34;;;;;;;24.50;15.05;;;;;;;10.29;75.79;93565.13;4974453;28;20075;-77
2020/12/07 00:33:59;;;;;;;24.27;14.63;;;;;;;10.29;75.92;93565.13;4995509;28;20024;-77
2020/12/07 00:36:25;;;;;;;22.75;14.48;;;;;;;10.24;75.68;93560.72;4975088;28;20494;-77
2020/12/07 00:38:52;;;;;;;20.90;12.68;;;;;;;10.19;75.82;93542.34;5016297;28;20057;-77
2020/12/07 00:41:24;;;;;;;23.50;14.55;;;;;;;10.24;75.76;93557.31;4999541;28;20031;-80
2020/12/07 00:43:50;;;;;;;18.50;12.32;;;;;;;10.24;75.81;93559.94;4999624;28;20126;-78
2020/12/07 00:46:17;;;;;;;19.83;11.73;;;;;;;10.17;76.24;93547.13;5031208;28;20041;-77
2020/12/07 00:48:43;;;;;;;17.80;11.88;;;;;;;10.22;75.93;93543.59;5002604;28;20487;-76
2020/12/07 00:51:08;;;;;;;19.75;11.90;;;;;;;10.20;76.12;93537.84;5040337;28;20071;-77
2020/12/07 00:53:34;;;;;;;19.33;12.35;;;;;;;10.14;76.08;93525.75;5037051;28;20649;-77
2020/12/07 00:56:00;;;;;;;17.67;10.88;;;;;;;10.22;75.58;93530.38;4993760;28;20502;-77
2020/12/07 00:58:25;;;;;;;18.05;11.65;;;;;;;10.27;75.43;93528.44;5004414;28;20069;-76
2020/12/07 01:00:51;;;;;;;15.05;11.00;;;;;;;10.28;74.90;93516.81;4995435;28;20603;-78
2020/12/07 01:03:16;;;;;;;17.38;10.85;;;;;;;10.37;74.73;93538.81;4991441;28;20042;-77
2020/12/07 01:05:42;;;;;;;15.95;10.43;;;;;;;10.39;74.77;93528.75;4980791;28;20054;-77
2020/12/07 01:08:07;;;;;;;17.70;11.18;;;;;;;10.33;74.79;93513.28;4988266;28;20045;-78
2020/12/07 01:10:33;;;;;;;17.42;11.57;;;;;;;10.34;74.50;93520.16;4982746;28;20087;-78
2020/12/07 01:12:58;;;;;;;17.48;11.25;;;;;;;10.27;74.54;93525.81;4996929;28;20523;-78
2020/12/07 01:15:24;;;;;;;16.75;10.55;;;;;;;10.22;74.71;93519.81;4987971;28;20065;-77
2020/12/07 01:17:49;;;;;;;15.88;10.30;;;;;;;10.19;74.94;93513.28;4987133;28;20038;-77
2020/12/07 01:20:15;;;;;;;15.90;10.50;;;;;;;10.14;75.08;93504.66;4990173;28;20095;-78
2020/12/07 01:22:40;;;;;;;17.45;10.30;;;;;;;10.27;74.80;93517.09;4984692;28;20027;-77
2020/12/07 01:25:06;;;;;;;16.17;10.20;;;;;;;10.26;74.29;93503.09;4987390;28;20097;-78
2020/12/07 01:27:31;;;;;;;14.05;9.70;;;;;;;10.21;74.11;93500.59;4987811;28;20585;-77
2020/12/07 01:29:57;;;;;;;12.48;9.52;;;;;;;10.23;74.00;93495.78;4996821;28;20042;-77
2020/12/07 01:32:22;;;;;;;14.60;9.75;;;;;;;10.29;74.08;93497.25;5013081;28;20108;-77
2020/12/07 01:34:49;;;;;;;15.65;9.43;;;;;;;10.25;74.12;93498.13;4995001;28;20066;-77
2020/12/07 01:37:15;;;;;;;15.52;10.23;;;;;;;10.30;73.87;93504.09;4994422;28;20084;-77
2020/12/07 01:39:40;;;;;;;15.52;10.27;;;;;;;10.30;73.89;93496.19;5043496;28;20041;-77
2020/12/07 01:42:06;;;;;;;13.80;9.35;;;;;;;10.25;73.83;93491.00;4991299;28;20031;-78
2020/12/07 01:44:31;;;;;;;14.52;9.20;;;;;;;10.19;74.07;93507.22;4972798;28;20541;-77
2020/12/07 01:46:57;;;;;;;12.65;9.40;;;;;;;10.19;74.07;93492.16;4960733;28;20914;-77
2020/12/07 01:49:24;;;;;;;14.02;8.68;;;;;;;10.11;74.39;93499.97;4970251;28;20038;-77
2020/12/07 01:51:50;;;;;;;11.98;8.95;;;;;;;10.14;74.16;93504.66;5002639;28;20062;-77
2020/12/07 01:54:16;;;;;;;13.27;8.98;;;;;;;10.10;74.09;93498.38;4985467;28;20045;-78
2020/12/07 01:56:42;;;;;;;12.48;8.57;;;;;;;10.08;73.66;93487.31;4984474;28;20065;-77
2020/12/07 01:59:08;;;;;;;12.95;8.93;;;;;;;10.02;74.19;93470.03;4985624;28;20066;-77
2020/12/07 02:01:36;;;;;;;14.05;9.30;;;;;;;10.22;73.79;93483.66;4985340;28;20069;-81
2020/12/07 02:04:01;;;;;;;13.80;9.55;;;;;;;10.14;73.95;93472.97;4989453;28;20045;-79
2020/12/07 02:06:27;;;;;;;14.35;9.35;;;;;;;10.09;73.97;93460.63;4987124;28;20212;-77
2020/12/07 02:08:52;;;;;;;12.23;8.48;;;;;;;10.11;73.62;93465.63;4987523;28;20781;-79
2020/12/07 02:11:19;;;;;;;15.02;9.20;;;;;;;10.12;74.11;93462.69;4991697;28;20125;-77
2020/12/07 02:13:45;;;;;;;11.57;9.02;;;;;;;10.09;74.25;93465.91;4984269;28;20060;-76
2020/12/07 02:16:11;;;;;;;20.00;11.18;;;;;;;10.12;74.49;93475.09;4988870;28;20022;-77
2020/12/07 02:18:36;;;;;;;11.55;9.15;;;;;;;10.11;74.49;93473.56;4996811;28;20041;-77
2020/12/07 02:21:02;;;;;;;11.75;9.20;;;;;;;10.11;74.20;93469.06;4989599;28;20125;-78
2020/12/07 02:23:28;;;;;;;13.80;8.48;;;;;;;10.18;73.32;93479.25;4983774;28;20046;-78
2020/12/07 02:25:53;;;;;;;12.27;8.32;;;;;;;10.22;73.27;93482.88;4998803;28;20036;-78
2020/12/07 02:28:19;;;;;;;10.88;7.47;;;;;;;10.23;72.99;93471.22;5010136;28;20020;-77
2020/12/07 02:30:44;;;;;;;11.63;8.38;;;;;;;10.20;73.36;93466.53;4985531;28;20034;-77
2020/12/07 02:33:10;;;;;;;15.80;9.52;;;;;;;10.13;73.79;93464.25;4986764;28;20071;-77
2020/12/07 02:35:35;;;;;;;12.68;9.05;;;;;;;10.14;74.05;93459.75;5014294;28;20427;-76
2020/12/07 02:38:00;;;;;;;11.73;9.07;;;;;;;10.00;74.34;93452.63;4984106;28;20488;-81
2020/12/07 02:40:26;;;;;;;13.23;7.78;;;;;;;10.04;74.37;93462.59;5010120;28;20047;-83
2020/12/07 02:42:51;;;;;;;12.63;9.07;;;;;;;9.99;74.35;93456.34;4989264;28;20053;-77
2020/12/07 02:45:18;;;;;;;14.15;9.15;;;;;;;10.05;74.45;93461.53;4989571;28;20042;-78
2020/12/07 02:47:44;;;;;;;15.73;9.38;;;;;;;10.05;74.45;93454.38;4993365;28;20068;-77
2020/12/07 02:50:11;;;;;;;12.27;8.93;;;;;;;10.02;74.88;93458.38;5021553;28;20081;-77
2020/12/07 02:52:37;;;;;;;12.65;8.98;;;;;;;10.07;74.69;93456.75;4989351;28;20031;-76
2020/12/07 02:55:05;;;;;;;13.63;9.63;;;;;;;10.06;74.70;93473.66;4984536;28;20086;-77
2020/12/07 02:57:31;;;;;;;13.77;10.15;;;;;;;10.05;74.91;93464.16;4981590;28;20037;-77
2020/12/07 02:59:56;;;;;;;17.50;10.23;;;;;;;9.86;75.02;93457.13;5002149;28;20050;-78
2020/12/07 03:02:22;;;;;;;15.30;9.63;;;;;;;9.91;75.13;93480.00;4990543;28;20094;-82
2020/12/07 03:04:48;;;;;;;14.45;10.05;;;;;;;10.00;74.94;93479.03;4995187;28;20042;-78
2020/12/07 03:07:13;;;;;;;13.43;8.82;;;;;;;10.05;74.43;93483.44;4990430;28;20418;-78
2020/12/07 03:09:39;;;;;;;12.75;8.35;;;;;;;10.05;74.07;93470.22;5020342;28;20034;-77
2020/12/07 03:12:06;;;;;;;13.60;8.80;;;;;;;10.02;74.18;93461.03;5024515;28;20046;-79
2020/12/07 03:14:32;;;;;;;12.55;8.93;;;;;;;10.00;74.40;93473.75;4990730;28;20057;-82
2020/12/07 03:16:58;;;;;;;13.52;9.02;;;;;;;10.02;74.54;93474.22;4995598;28;20040;-77
2020/12/07 03:19:23;;;;;;;11.77;8.13;;;;;;;10.08;74.52;93476.75;5018803;28;20028;-78
2020/12/07 03:21:49;;;;;;;14.30;8.82;;;;;;;10.09;74.14;93465.91;4969313;28;20051;-78
2020/12/07 03:24:15;;;;;;;15.15;9.70;;;;;;;10.02;74.52;93474.22;4977492;28;20492;-77
2020/12/07 03:26:40;;;;;;;16.17;10.50;;;;;;;10.15;74.56;93490.38;4996971;28;20074;-76
2020/12/07 03:29:06;;;;;;;14.93;9.80;;;;;;;10.08;74.71;93482.03;4988003;28;20047;-79
2020/12/07 03:31:33;;;;;;;16.58;10.10;;;;;;;10.00;74.79;93481.66;4990852;28;20033;-77
2020/12/07 03:34:00;;;;;;;14.60;9.45;;;;;;;9.98;74.47;93489.06;4991667;28;20022;-79
2020/12/07 03:36:26;;;;;;;14.27;9.32;;;;;;;10.02;74.66;93485.88;5025265;28;20047;-78
2020/12/07 03:38:52;;;;;;;17.70;10.20;;;;;;;9.87;75.25;93474.50;5038918;28;20042;-78
2020/12/07 03:41:18;;;;;;;12.68;9.13;;;;;;;9.95;74.81;93473.84;4990965;28;20080;-76
2020/12/07 03:43:44;;;;;;;13.85;8.65;;;;;;;9.94;74.73;93479.41;5001237;28;20030;-77
2020/12/07 03:46:10;;;;;;;13.45;8.88;;;;;;;9.91;74.48;93458.88;5012108;28;20037;-78
2020/12/07 03:48:36;;;;;;;13.68;9.52;;;;;;;9.97;74.23;93468.25;4984170;28;20512;-77
2020/12/07 03:51:01;;;;;;;12.25;8.68;;;;;;;9.96;74.15;93471.97;5003798;28;20057;-77
2020/12/07 03:53:37;;;;;;;11.15;7.57;;;;;;;9.94;73.79;93458.28;4981992;28;20103;-79
2020/12/07 03:56:04;;;;;;;10.07;7.65;;;;;;;9.97;73.95;93469.03;5010344;28;20049;-76
2020/12/07 03:58:29;;;;;;;13.07;8.68;;;;;;;9.96;73.40;93456.16;4985240;28;20023;-78
2020/12/07 04:00:56;;;;;;;10.75;7.13;;;;;;;10.06;72.85;93482.34;5001786;28;20034;-76
2020/12/07 04:03:22;;;;;;;11.85;8.30;;;;;;;10.06;73.12;93471.81;5055941;28;20483;-77
2020/12/07 04:05:55;;;;;;;12.35;8.30;;;;;;;10.07;73.31;93475.22;5031949;28;20085;-78
2020/12/07 04:08:21;;;;;;;10.73;7.57;;;;;;;10.10;72.85;93472.00;5006202;28;20074;-77
2020/12/07 04:10:46;;;;;;;11.90;8.27;;;;;;;9.95;72.80;93444.81;5065635;28;20044;-77
2020/12/07 04:13:12;;;;;;;11.07;8.48;;;;;;;10.07;73.09;93469.94;5009684;28;20028;-78
2020/12/07 04:15:37;;;;;;;14.25;9.57;;;;;;;9.99;73.57;93460.81;4982363;28;20050;-80
2020/12/07 04:18:03;;;;;;;14.45;9.48;;;;;;;10.03;73.42;93477.66;4980575;28;20031;-77
2020/12/07 04:20:28;;;;;;;12.88;8.73;;;;;;;10.14;72.78;93494.09;5020407;28;20044;-76
2020/12/07 04:22:54;;;;;;;12.52;8.85;;;;;;;10.14;72.77;93483.53;5051545;28;20259;-77
2020/12/07 04:25:19;;;;;;;14.27;9.60;;;;;;;10.08;73.53;93477.56;4988143;28;20030;-77
2020/12/07 04:27:45;;;;;;;11.63;9.00;;;;;;;10.04;73.43;93468.66;4990779;28;20058;-77
2020/12/07 04:30:10;;;;;;;15.50;9.98;;;;;;;10.15;73.09;93469.25;5050805;28;20050;-77
2020/12/07 04:32:36;;;;;;;15.52;9.63;;;;;;;10.20;73.04;93463.91;5036893;28;20053;-76
2020/12/07 04:35:03;;;;;;;15.55;9.90;;;;;;;10.22;73.05;93470.44;5004023;28;20037;-77
2020/12/07 04:37:28;;;;;;;14.05;10.65;;;;;;;10.21;73.26;93479.47;4993796;28;20068;-77
2020/12/07 04:39:54;;;;;;;19.42;10.57;;;;;;;10.25;73.49;93469.09;4996347;28;20080;-78
2020/12/07 04:42:20;;;;;;;16.27;10.95;;;;;;;10.36;73.57;93471.22;4990199;28;20407;-77
2020/12/07 04:44:46;;;;;;;18.35;11.35;;;;;;;10.25;73.22;93458.53;4978144;28;20089;-77
2020/12/07 04:47:16;;;;;;;14.27;10.40;;;;;;;10.24;73.61;93478.09;4992047;28;20057;-76
2020/12/07 04:49:42;;;;;;;17.42;11.52;;;;;;;10.18;73.72;93463.41;4989320;28;20048;-77
2020/12/07 04:52:08;;;;;;;13.70;9.52;;;;;;;10.24;73.42;93467.53;5004771;28;20052;-75
2020/12/07 04:54:37;;;;;;;13.65;9.73;;;;;;;10.27;73.23;93473.00;4993548;28;20595;-76
2020/12/07 04:57:04;;;;;;;17.70;11.15;;;;;;;10.27;73.42;93456.34;4993898;28;20141;-76
2020/12/07 04:59:32;;;;;;;17.98;12.00;;;;;;;10.32;73.61;93454.41;5029057;28;20035;-77
2020/12/07 05:01:58;;;;;;;18.30;11.25;;;;;;;10.20;73.57;93455.97;5011564;28;20142;-79
2020/12/07 05:04:23;;;;;;;17.13;11.43;;;;;;;10.22;73.87;93459.88;4999028;28;20552;-79
2020/12/07 05:07:00;;;;;;;17.75;11.90;;;;;;;10.22;73.79;93457.25;4977755;28;20456;-77
2020/12/07 05:09:26;;;;;;;16.65;11.98;;;;;;;10.13;74.04;93458.19;4998143;28;20083;-76
2020/12/07 05:11:54;;;;;;;14.32;10.35;;;;;;;10.08;74.34;93453.00;4994386;28;20046;-78
2020/12/07 05:14:21;;;;;;;15.13;11.15;;;;;;;10.02;74.63;93459.47;4973628;28;20108;-76
2020/12/07 05:16:50;;;;;;;19.98;12.40;;;;;;;10.07;74.91;93467.31;4977123;28;20034;-78
2020/12/07 05:19:22;;;;;;;16.15;10.30;;;;;;;10.05;74.65;93464.16;4985291;28;20102;-77
2020/12/07 05:21:49;;;;;;;16.30;10.20;;;;;;;10.02;74.07;93468.16;4965750;28;20045;-77
2020/12/07 05:24:15;;;;;;;15.40;9.73;;;;;;;10.00;73.65;93472.97;4963929;28;20696;-76
2020/12/07 05:26:43;;;;;;;12.90;9.18;;;;;;;10.07;73.71;93477.88;4978839;28;20045;-77
2020/12/07 05:29:19;;;;;;;15.02;10.80;;;;;;;10.09;73.72;93486.25;4980902;28;20034;-77
2020/12/07 05:31:45;;;;;;;13.55;9.80;;;;;;;10.09;73.78;93478.34;4970011;28;20495;-77
2020/12/07 05:34:11;;;;;;;14.30;9.85;;;;;;;10.07;73.90;93478.63;4997784;28;20035;-78
2020/12/07 05:36:37;;;;;;;13.90;10.15;;;;;;;10.16;74.40;93479.56;4980187;28;20576;-77
2020/12/07 05:39:07;;;;;;;14.70;10.32;;;;;;;10.16;74.14;93481.41;5008487;28;20046;-78
2020/12/07 05:41:33;;;;;;;18.05;11.93;;;;;;;10.11;74.16;93470.91;5009865;28;20034;-77
2020/12/07 05:44:00;;;;;;;18.63;11.07;;;;;;;10.15;74.56;93474.53;4994874;28;20043;-78
2020/12/07 05:46:28;;;;;;;17.35;11.45;;;;;;;9.97;75.03;93468.25;4989136;28;20025;-76
2020/12/07 05:48:55;;;;;;;18.02;12.27;;;;;;;9.94;75.49;93459.06;4983742;28;20500;-78
2020/12/07 05:51:25;;;;;;;20.15;12.55;;;;;;;9.90;75.84;93455.44;4987104;28;20204;-76
2020/12/07 05:53:52;;;;;;;19.60;11.73;;;;;;;9.87;75.81;93466.56;5018669;28;20050;-76
2020/12/07 05:56:18;;;;;;;22.55;12.85;;;;;;;9.81;75.84;93454.56;5011704;28;20056;-76
2020/12/07 05:59:06;;;;;;;19.02;11.60;;;;;;;9.84;76.22;93453.97;5008074;28;20032;-76
2020/12/07 06:01:36;;;;;;;18.30;11.35;;;;;;;9.81;76.52;93459.06;4968471;28;20484;-77
2020/12/07 06:04:02;;;;;;;20.35;11.57;;;;;;;9.84;76.03;93451.34;4961852;28;20066;-77
2020/12/07 06:06:34;;;;;;;18.92;12.05;;;;;;;9.77;75.82;93443.03;4991217;28;20125;-76
2020/12/07 06:09:09;;;;;;;18.13;11.60;;;;;;;9.79;75.97;93440.88;4990291;28;20061;-76
2020/12/07 06:12:07;;;;;;;22.92;12.85;;;;;;;9.88;75.85;93446.25;4986577;28;20049;-76
2020/12/07 06:14:33;;;;;;;18.27;11.70;;;;;;;9.92;75.73;93445.38;4999789;28;20741;-77
2020/12/07 06:16:59;;;;;;;18.63;12.57;;;;;;;9.93;75.57;93444.31;4976924;28;20035;-77
2020/12/07 06:19:24;;;;;;;21.95;14.50;;;;;;;9.93;75.86;93441.66;5020267;28;20161;-76
2020/12/07 06:21:56;;;;;;;22.02;14.20;;;;;;;10.01;75.61;93450.78;5002378;28;20046;-78
2020/12/07 06:24:23;;;;;;;21.77;12.85;;;;;;;9.93;75.35;93441.66;5006068;28;20049;-78
2020/12/07 06:27:12;;;;;;;21.88;12.85;;;;;;;9.98;75.34;93441.56;4998827;28;20387;-77
2020/12/07 06:29:38;;;;;;;19.77;12.48;;;;;;;9.92;75.52;93434.81;5015731;28;20126;-80
2020/12/07 06:32:04;;;;;;;20.98;12.55;;;;;;;9.80;75.72;93445.06;4992797;28;20040;-79
2020/12/07 06:34:37;;;;;;;22.40;14.00;;;;;;;9.77;76.06;93437.75;4983973;28;20030;-77
2020/12/07 06:37:06;;;;;;;17.92;12.68;;;;;;;9.77;76.16;93442.25;5000077;28;20080;-78
2020/12/07 06:39:43;;;;;;;20.77;13.75;;;;;;;9.79;76.21;93446.16;4982363;28;20133;-76
2020/12/07 06:42:09;;;;;;;26.13;14.75;;;;;;;9.70;76.37;93431.28;5012825;28;20038;-77
2020/12/07 06:44:35;;;;;;;18.77;12.98;;;;;;;9.78;76.04;93433.22;5031803;28;20098;-77
2020/12/07 06:47:15;;;;;;;24.77;14.07;;;;;;;9.74;76.17;93427.75;5077319;28;20102;-76
2020/12/07 06:49:53;;;;;;;23.23;13.95;;;;;;;9.75;76.38;93424.06;5079981;28;20042;-77
2020/12/07 06:52:22;;;;;;;22.27;12.60;;;;;;;9.79;75.85;93418.97;4990998;28;20081;-77
2020/12/07 06:55:06;;;;;;;21.88;12.13;;;;;;;9.74;75.71;93422.50;4984972;28;20046;-80
2020/12/07 06:57:51;;;;;;;18.48;11.65;;;;;;;9.77;75.42;93411.38;4991860;28;20092;-78
2020/12/07 07:00:21;;;;;;;20.05;12.63;;;;;;;9.74;75.40;93408.50;4985671;28;20046;-77
2020/12/07 07:02:53;;;;;;;18.40;10.95;;;;;;;9.75;75.46;93412.72;5009024;28;20038;-79
2020/12/07 07:05:23;;;;;;;21.73;12.13;;;;;;;9.79;75.33;93409.19;4984676;28;20185;-78
2020/12/07 07:07:49;;;;;;;17.48;11.10;;;;;;;9.77;75.34;93416.66;4978600;28;20038;-77
2020/12/07 07:10:15;;;;;;;18.83;12.23;;;;;;;9.80;75.29;93413.41;4997108;28;20018;-77
2020/12/07 07:12:43;;;;;;;21.13;12.05;;;;;;;9.78;75.22;93396.28;4971281;28;20062;-81
2020/12/07 07:15:10;;;;;;;21.02;11.95;;;;;;;9.81;75.25;93399.16;5042614;28;20028;-81
2020/12/07 07:17:38;;;;;;;19.40;12.65;;;;;;;9.87;74.67;93392.69;5025023;28;20038;-77
2020/12/07 07:20:06;;;;;;;23.52;12.93;;;;;;;9.91;74.57;93403.44;5001269;28;20063;-77
2020/12/07 07:22:32;;;;;;;25.40;14.98;;;;;;;9.90;74.59;93394.75;5075170;28;20029;-77
2020/12/07 07:28:07;;;;;;;20.03;11.70;;;;;;;9.80;74.81;93402.84;5003175;28;20421;-77
2020/12/07 07:30:25;;;;;;;19.27;11.23;;;;;;;9.74;74.74;93396.09;4972339;28;20277;-79
2020/12/07 07:32:52;;;;;;;18.60;10.23;;;;;;;9.90;74.22;93394.75;5000204;28;20038;-77
2020/12/07 07:35:20;;;;;;;18.05;11.15;;;;;;;10.02;74.15;93407.44;4986535;28;20471;-77
2020/12/07 07:37:46;;;;;;;17.83;10.57;;;;;;;10.06;73.43;93405.00;5000253;28;20033;-77
2020/12/07 07:40:17;;;;;;;17.35;11.00;;;;;;;10.17;73.16;93388.69;5003762;28;20434;-79
2020/12/07 07:42:57;;;;;;;18.02;11.27;;;;;;;10.26;72.82;93402.00;4996710;28;20038;-77
2020/12/07 07:45:32;;;;;;;30.80;18.15;;;;;;;10.09;72.57;93392.00;5050547;28;20048;-79
2020/12/07 07:48:19;;;;;;;17.63;12.32;;;;;;;10.22;72.58;93401.00;5007885;28;20128;-81
2020/12/07 08:03:31;;;;;;;18.98;11.00;;;;;;;10.36;72.24;93418.41;4973535;28;20050;-76
2020/12/07 08:15:55;;;;;;;23.58;12.57;;;;;;;10.32;72.48;93412.13;4998620;28;20049;-77
2020/12/07 08:18:35;;;;;;;19.10;10.93;;;;;;;10.34;72.17;93417.91;4975408;28;20039;-76
2020/12/07 08:21:02;;;;;;;28.83;14.18;;;;;;;10.39;72.23;93412.53;4987762;28;20479;-78
2020/12/07 08:23:34;;;;;;;16.83;11.98;;;;;;;10.15;72.40;93392.69;5021194;28;20536;-77
2020/12/07 08:26:01;;;;;;;20.70;11.45;;;;;;;10.19;73.00;93404.25;5051514;28;20045;-80
2020/12/07 08:28:37;;;;;;;18.98;12.00;;;;;;;10.06;73.17;93397.09;4990175;28;20033;-77
2020/12/07 08:31:09;;;;;;;26.48;12.32;;;;;;;10.09;72.93;93412.34;4985546;28;20096;-79
2020/12/07 08:33:37;;;;;;;22.30;11.88;;;;;;;10.09;73.34;93415.75;4983626;28;21459;-77
2020/12/07 08:36:04;;;;;;;20.15;12.02;;;;;;;9.99;73.50;93406.19;4974184;28;20055;-77
2020/12/07 08:38:32;;;;;;;16.73;11.05;;;;;;;10.03;73.62;93424.84;4972030;28;20038;-78
2020/12/07 08:41:16;;;;;;;20.17;12.07;;;;;;;9.94;73.59;93414.19;4985573;28;20495;-79
2020/12/07 08:43:46;;;;;;;18.40;11.13;;;;;;;9.89;73.48;93414.28;5057036;28;20021;-77
2020/12/07 08:46:14;;;;;;;22.73;11.45;;;;;;;9.93;73.45;93415.25;4983970;28;20028;-78
2020/12/07 08:48:40;;;;;;;18.65;10.13;;;;;;;9.99;73.06;93405.41;4971627;28;20050;-77
2020/12/07 08:51:08;;;;;;;20.33;11.52;;;;;;;10.02;72.88;93397.66;4991029;28;20745;-77
2020/12/07 08:53:34;;;;;;;16.00;9.90;;;;;;;10.00;73.11;93397.19;4968875;28;20127;-79
2020/12/07 08:55:59;;;;;;;24.02;13.55;;;;;;;10.00;73.72;93391.91;4972105;28;20512;-78
2020/12/07 08:58:25;;;;;;;21.42;12.52;;;;;;;10.06;73.84;93382.03;4971170;28;20034;-76
2020/12/07 09:00:50;;;;;;;22.63;12.40;;;;;;;10.09;73.70;93385.94;4991318;28;20035;-80
2020/12/07 09:03:16;;;;;;;18.60;12.30;;;;;;;10.06;73.65;93381.25;4983154;28;20567;-79
2020/12/07 09:05:42;;;;;;;18.83;12.63;;;;;;;9.96;73.93;93363.75;4982988;28;20552;-81
2020/12/07 09:08:07;;;;;;;18.50;11.10;;;;;;;9.90;73.77;93357.81;4976463;28;20037;-81
2020/12/07 09:10:34;;;;;;;17.88;11.55;;;;;;;9.93;73.98;93351.13;4992038;28;20044;-79
2020/12/07 09:13:01;;;;;;;16.60;11.30;;;;;;;10.02;73.81;93348.59;5000166;28;20037;-78
2020/12/07 09:15:27;;;;;;;16.23;10.95;;;;;;;10.06;73.48;93355.63;4988215;28;20034;-77
2020/12/07 09:17:52;;;;;;;17.83;11.02;;;;;;;9.97;73.41;93347.59;4996104;28;20032;-77
2020/12/07 09:20:19;;;;;;;17.48;11.13;;;;;;;10.07;72.88;93343.22;4985132;28;20128;-78
2020/12/07 09:22:44;;;;;;;16.60;10.60;;;;;;;10.13;72.58;93344.66;4985635;28;20030;-77
2020/12/07 09:25:10;;;;;;;15.00;10.27;;;;;;;10.13;72.78;93334.88;4988528;28;20038;-79
2020/12/07 09:27:35;;;;;;;17.63;9.90;;;;;;;10.00;72.45;93325.91;4997759;28;20043;-78
2020/12/07 09:30:01;;;;;;;13.82;9.55;;;;;;;10.11;71.90;93333.63;4987207;28;20035;-78
2020/12/07 09:32:26;;;;;;;18.58;11.30;;;;;;;10.09;71.78;93330.50;4991740;28;20064;-80
2020/12/07 09:34:52;;;;;;;17.38;11.40;;;;;;;10.02;71.78;93330.88;4990512;28;20043;-78
2020/12/07 09:37:17;;;;;;;18.38;10.90;;;;;;;10.15;71.38;93342.50;4990471;28;20034;-77
2020/12/07 09:39:43;;;;;;;19.63;11.30;;;;;;;10.20;71.18;93324.75;4966145;28;20540;-77
2020/12/07 09:42:08;;;;;;;21.90;12.50;;;;;;;10.13;71.57;93328.81;4973618;28;20034;-77
2020/12/07 09:44:34;;;;;;;14.35;10.00;;;;;;;10.12;71.08;93338.59;4987763;28;20034;-80
2020/12/07 09:46:59;;;;;;;16.02;10.13;;;;;;;10.09;70.47;93333.13;4991344;28;20038;-81
2020/12/07 09:49:25;;;;;;;15.82;9.45;;;;;;;9.99;70.58;93321.72;4968295;28;20023;-78
2020/12/07 09:51:50;;;;;;;16.05;10.57;;;;;;;10.02;70.56;93332.78;4987837;28;20689;-78
2020/12/07 09:54:16;;;;;;;13.13;9.38;;;;;;;10.06;70.71;93328.47;4976226;28;20090;-80
2020/12/07 09:56:42;;;;;;;16.02;10.60;;;;;;;9.92;70.54;93302.09;5005928;28;20070;-78
2020/12/07 09:59:07;;;;;;;14.88;10.20;;;;;;;10.04;70.65;93312.91;4976453;28;20073;-77
2020/12/07 10:01:33;;;;;;;13.85;9.60;;;;;;;10.13;70.53;93316.41;4971749;28;20062;-81
2020/12/07 10:03:58;;;;;;;14.60;9.32;;;;;;;10.08;70.71;93294.59;4993962;28;20804;-78
2020/12/07 10:06:24;;;;;;;15.00;9.63;;;;;;;10.04;70.83;93304.97;4991055;28;20502;-81
2020/12/07 10:08:55;;;;;;;17.23;9.95;;;;;;;10.05;71.13;93311.03;4988734;28;20520;-81
2020/12/07 10:11:21;;;;;;;14.52;10.02;;;;;;;10.13;71.33;93302.41;4985081;28;20082;-78
2020/12/07 10:13:47;;;;;;;15.57;9.88;;;;;;;10.04;71.13;93283.09;4990134;28;20064;-80
2020/12/07 10:16:13;;;;;;;18.50;11.30;;;;;;;10.14;70.96;93298.69;5067204;28;20032;-78
2020/12/07 10:18:40;;;;;;;15.43;10.95;;;;;;;10.18;70.85;93283.84;4973935;28;20039;-78
2020/12/07 10:21:06;;;;;;;17.65;10.48;;;;;;;10.11;70.94;93278.19;4959962;28;20035;-81
2020/12/07 10:23:31;;;;;;;16.55;10.93;;;;;;;10.07;70.92;93282.50;4977579;28;20065;-81
2020/12/07 10:25:57;;;;;;;21.30;9.85;;;;;;;10.13;70.90;93281.28;4988107;28;20366;-78
2020/12/07 10:28:22;;;;;;;14.65;9.20;;;;;;;10.15;70.38;93281.78;4991075;28;20097;-78
2020/12/07 10:30:48;;;;;;;14.38;9.80;;;;;;;10.16;70.51;93270.19;4990921;28;20121;-78
2020/12/07 10:33:13;;;;;;;13.77;9.18;;;;;;;10.19;69.90;93269.59;4982812;28;20392;-81
2020/12/07 10:35:39;;;;;;;12.57;8.77;;;;;;;10.22;69.80;93255.78;4993480;28;20038;-78
2020/12/07 10:38:04;;;;;;;12.80;8.98;;;;;;;10.26;69.23;93246.19;4980556;28;20515;-79
2020/12/07 10:40:30;;;;;;;12.90;9.18;;;;;;;10.36;68.95;93267.09;4993320;28;20491;-78
2020/12/07 10:42:57;;;;;;;13.18;9.73;;;;;;;10.34;68.87;93256.03;5003477;28;20029;-78
2020/12/07 10:45:22;;;;;;;14.10;9.25;;;;;;;10.34;68.41;93256.81;4990918;28;20045;-79
2020/12/07 10:47:50;;;;;;;12.82;9.05;;;;;;;10.49;68.37;93258.31;4983608;28;20124;-81
2020/12/07 10:50:16;;;;;;;14.50;9.93;;;;;;;10.35;68.66;93247.03;4989576;28;20058;-81
2020/12/07 10:52:42;;;;;;;15.80;9.57;;;;;;;10.41;69.23;93256.38;4986192;28;20475;-77
2020/12/07 10:55:07;;;;;;;14.93;10.38;;;;;;;10.36;69.43;93253.88;4979896;28;20434;-76
2020/12/07 10:57:33;;;;;;;18.00;11.32;;;;;;;10.44;69.32;93258.44;4987856;28;20265;-77
2020/12/07 10:59:58;;;;;;;13.13;9.70;;;;;;;10.48;69.36;93266.53;4973792;28;20035;-79
2020/12/07 11:02:27;;;;;;;15.07;10.32;;;;;;;10.55;69.60;93267.69;4989542;28;20035;-78
2020/12/07 11:04:52;;;;;;;14.90;10.70;;;;;;;10.46;69.61;93256.25;4976555;28;20052;-81
2020/12/07 11:07:19;;;;;;;15.38;11.50;;;;;;;10.37;69.95;93261.50;4992934;28;20026;-81
2020/12/07 11:09:45;;;;;;;18.80;11.77;;;;;;;10.23;70.65;93252.06;4979606;28;20686;-77
2020/12/07 11:12:16;;;;;;;16.67;10.32;;;;;;;10.28;70.66;93251.94;4979922;28;20045;-79
2020/12/07 11:14:43;;;;;;;20.50;11.57;;;;;;;10.30;70.25;93228.66;5006989;28;20042;-80
2020/12/07 11:17:09;;;;;;;23.40;13.65;;;;;;;10.29;70.51;93243.72;4972180;28;20042;-79
2020/12/07 11:19:35;;;;;;;18.85;13.13;;;;;;;10.26;70.67;93233.00;4977010;28;20076;-77
2020/12/07 11:22:00;;;;;;;21.25;12.80;;;;;;;10.27;70.54;93253.00;4990725;28;20018;-79
2020/12/07 11:24:26;;;;;;;17.65;11.50;;;;;;;10.22;69.93;93253.13;4992765;28;20108;-77
2020/12/07 11:26:51;;;;;;;16.77;12.05;;;;;;;10.20;70.25;93250.03;4996871;28;20467;-77
2020/12/07 11:29:16;;;;;;;18.92;12.77;;;;;;;10.17;70.71;93248.75;4999910;28;20041;-79
2020/12/07 11:31:46;;;;;;;21.15;13.57;;;;;;;10.09;71.39;93232.81;5003264;28;20030;-77
2020/12/07 11:34:11;;;;;;;18.65;12.40;;;;;;;10.05;71.34;93243.19;4990713;28;20108;-80
2020/12/07 11:36:39;;;;;;;20.73;13.18;;;;;;;10.04;71.15;93240.84;4989736;28;20133;-79
2020/12/07 11:42:40;;;;;;;21.42;13.05;;;;;;;9.92;71.68;93230.81;4980649;28;20034;-78
2020/12/07 11:44:25;;;;;;;18.83;11.65;;;;;;;9.91;71.58;93226.63;4994241;28;20074;-78
2020/12/07 11:46:56;;;;;;;15.68;11.82;;;;;;;9.88;71.48;93212.16;4975566;28;21371;-81
2020/12/07 11:49:21;;;;;;;19.48;12.00;;;;;;;9.95;71.71;93211.75;5013898;28;20018;-78
2020/12/07 11:51:47;;;;;;;17.48;12.35;;;;;;;10.02;71.73;93213.97;4999922;28;20043;-78